createdAt,value
2018-01-26T00:00:29.858Z,22.37
2018-01-26T00:02:57.399Z,22.10
2018-01-26T00:05:25.688Z,21.33
2018-01-26T00:07:53.224Z,22.10
2018-01-26T00:10:21.522Z,21.03
2018-01-26T00:12:49.065Z,20.60
2018-01-26T00:15:16.584Z,22.00
2018-01-26T00:17:44.132Z,20.73
2018-01-26T00:20:11.656Z,22.10
2018-01-26T00:22:39.255Z,20.13
2018-01-26T00:25:06.792Z,20.27
2018-01-26T00:27:34.325Z,20.00
2018-01-26T00:30:01.877Z,19.93
2018-01-26T00:32:30.160Z,20.37
2018-01-26T00:34:57.715Z,20.43
2018-01-26T00:37:25.250Z,20.30
2018-01-26T00:39:52.805Z,18.03
2018-01-26T00:42:20.320Z,20.17
2018-01-26T00:44:47.864Z,20.40
2018-01-26T00:47:15.428Z,20.40
2018-01-26T00:49:42.964Z,20.63
2018-01-26T00:52:11.253Z,19.50
2018-01-26T00:54:38.817Z,21.77
2018-01-26T00:57:06.335Z,20.97
2018-01-26T00:59:33.883Z,19.97
2018-01-26T01:02:01.397Z,21.67
2018-01-26T01:04:28.937Z,20.37
2018-01-26T01:06:57.278Z,19.90
2018-01-26T01:09:24.821Z,21.07
2018-01-26T01:11:52.463Z,20.50
2018-01-26T01:14:19.996Z,19.70
2018-01-26T01:16:47.516Z,19.60
2018-01-26T01:19:15.058Z,20.70
2018-01-26T01:21:42.579Z,21.57
2018-01-26T01:24:10.120Z,21.60
2018-01-26T01:26:37.647Z,20.87
2018-01-26T01:29:05.178Z,20.57
2018-01-26T01:31:33.476Z,22.23
2018-01-26T01:34:01.020Z,21.37
2018-01-26T01:36:28.560Z,23.37
2018-01-26T01:38:56.099Z,21.13
2018-01-26T01:41:23.623Z,21.20
2018-01-26T01:43:51.176Z,21.47
2018-01-26T01:46:18.696Z,23.10
2018-01-26T01:51:54.252Z,21.20
2018-01-26T01:54:21.814Z,23.43
2018-01-26T01:56:49.377Z,23.97
2018-01-26T01:59:16.946Z,23.47
2018-01-26T02:01:44.491Z,23.03
2018-01-26T02:04:12.057Z,23.73
2018-01-26T02:06:39.606Z,23.00
2018-01-26T02:09:07.187Z,23.20
2018-01-26T02:11:34.738Z,23.40
2018-01-26T02:14:02.320Z,22.67
2018-01-26T02:16:29.860Z,25.20
2018-01-26T02:18:57.433Z,24.73
2018-01-26T02:21:25.097Z,22.97
2018-01-26T02:24:10.142Z,22.33
2018-01-26T02:26:37.704Z,24.53
2018-01-26T02:29:05.267Z,23.13
2018-01-26T02:31:32.832Z,25.00
2018-01-26T02:34:00.428Z,24.07
2018-01-26T02:36:28.003Z,23.60
2018-01-26T02:38:55.583Z,23.77
2018-01-26T02:41:23.141Z,23.33
2018-01-26T02:43:50.731Z,22.07
2018-01-26T02:46:18.280Z,22.47
2018-01-26T02:48:45.869Z,23.40
2018-01-26T02:51:14.204Z,24.37
2018-01-26T02:53:41.780Z,25.03
2018-01-26T02:56:09.364Z,22.53
2018-01-26T02:58:37.706Z,23.53
2018-01-26T03:01:05.275Z,23.67
2018-01-26T03:03:32.833Z,26.03
2018-01-26T03:06:00.400Z,24.60
2018-01-26T03:08:27.943Z,23.40
2018-01-26T03:10:55.509Z,24.40
2018-01-26T03:13:23.047Z,24.03
2018-01-26T03:15:50.625Z,23.87
2018-01-26T03:18:18.180Z,23.37
2018-01-26T03:20:45.742Z,23.30
2018-01-26T03:23:13.288Z,23.83
2018-01-26T03:25:40.874Z,21.63
2018-01-26T03:28:08.429Z,22.07
2018-01-26T03:30:36.018Z,24.13
2018-01-26T03:33:03.569Z,23.87
2018-01-26T03:35:31.906Z,23.10
2018-01-26T03:37:59.456Z,24.33
2018-01-26T03:40:27.033Z,23.67
2018-01-26T03:42:54.582Z,23.00
2018-01-26T03:45:22.146Z,22.93
2018-01-26T03:47:49.701Z,24.20
2018-01-26T03:50:17.276Z,24.33
2018-01-26T03:52:44.882Z,24.43
2018-01-26T03:55:12.447Z,23.97
2018-01-26T03:57:39.991Z,24.53
2018-01-26T04:00:07.543Z,23.73
2018-01-26T04:02:35.832Z,24.03
2018-01-26T04:05:03.396Z,24.27
2018-01-26T04:07:30.929Z,26.27
2018-01-26T04:09:58.500Z,25.80
2018-01-26T04:12:26.033Z,24.73
2018-01-26T04:14:53.636Z,25.37
2018-01-26T04:17:21.156Z,25.10
2018-01-26T04:19:48.709Z,25.60
2018-01-26T04:22:16.233Z,23.67
2018-01-26T04:24:43.789Z,26.43
2018-01-26T04:27:11.321Z,25.20
2018-01-26T04:29:39.036Z,26.03
2018-01-26T04:32:06.571Z,23.87
2018-01-26T04:34:34.142Z,24.07
2018-01-26T04:37:01.675Z,25.30
2018-01-26T04:39:29.225Z,25.43
2018-01-26T04:41:56.753Z,26.17
2018-01-26T04:44:25.073Z,26.47
2018-01-26T04:46:52.613Z,24.90
2018-01-26T04:49:20.174Z,26.10
2018-01-26T04:51:47.710Z,24.77
2018-01-26T04:54:15.269Z,24.90
2018-01-26T04:56:43.552Z,24.90
2018-01-26T04:59:11.140Z,24.90
2018-01-26T05:01:38.685Z,27.17
2018-01-26T05:04:06.221Z,25.10
2018-01-26T05:06:34.548Z,25.60
2018-01-26T05:09:02.092Z,26.90
2018-01-26T05:11:29.633Z,27.17
2018-01-26T05:13:57.155Z,26.10
2018-01-26T05:16:24.709Z,28.33
2018-01-26T05:18:52.284Z,26.97
2018-01-26T05:21:20.596Z,24.27
2018-01-26T05:23:48.118Z,23.53
2018-01-26T05:26:15.702Z,27.67
2018-01-26T05:28:43.225Z,26.87
2018-01-26T05:31:10.784Z,27.77
2018-01-26T05:33:38.341Z,28.20
2018-01-26T05:36:05.921Z,29.30
2018-01-26T05:38:33.472Z,26.70
2018-01-26T05:41:01.786Z,25.70
2018-01-26T05:43:29.315Z,28.07
2018-01-26T05:45:57.609Z,27.53
2018-01-26T05:48:25.162Z,26.83
2018-01-26T05:50:52.703Z,27.30
2018-01-26T05:53:20.259Z,24.77
2018-01-26T05:55:47.795Z,27.30
2018-01-26T05:58:15.348Z,26.97
2018-01-26T06:00:42.880Z,26.80
2018-01-26T06:03:10.444Z,29.53
2018-01-26T06:05:37.993Z,29.30
2018-01-26T06:08:05.547Z,30.83
2018-01-26T06:10:33.080Z,28.87
2018-01-26T06:13:00.659Z,29.37
2018-01-26T06:15:28.189Z,29.03
2018-01-26T06:17:55.755Z,30.57
2018-01-26T06:20:23.299Z,29.83
2018-01-26T06:22:51.605Z,31.10
2018-01-26T06:25:19.184Z,31.10
2018-01-26T06:27:46.712Z,31.10
2018-01-26T06:30:14.286Z,33.63
2018-01-26T06:32:41.823Z,32.63
2018-01-26T06:35:09.368Z,32.20
2018-01-26T06:37:36.909Z,32.43
2018-01-26T06:40:04.455Z,32.97
2018-01-26T06:42:31.984Z,32.63
2018-01-26T06:44:59.546Z,34.37
2018-01-26T06:47:27.089Z,32.07
2018-01-26T06:49:54.639Z,33.30
2018-01-26T06:52:22.181Z,33.00
2018-01-26T06:54:49.746Z,31.97
2018-01-26T06:57:17.272Z,33.13
2018-01-26T06:59:44.864Z,31.27
2018-01-26T07:02:12.396Z,34.43
2018-01-26T07:04:39.975Z,31.77
2018-01-26T07:07:08.268Z,29.53
2018-01-26T07:09:35.836Z,33.70
2018-01-26T07:12:03.394Z,32.87
2018-01-26T07:14:30.924Z,34.37
2018-01-26T07:16:58.484Z,33.87
2018-01-26T07:19:26.042Z,35.13
2018-01-26T07:21:54.363Z,36.33
2018-01-26T07:24:21.904Z,40.03
2018-01-26T07:26:49.461Z,42.20
2018-01-26T07:29:16.986Z,41.37
2018-01-26T07:31:44.535Z,34.60
2018-01-26T07:34:12.064Z,36.13
2018-01-26T07:36:39.629Z,40.23
2018-01-26T07:39:07.173Z,33.67
2018-01-26T07:41:34.725Z,35.17
2018-01-26T07:44:02.257Z,36.33
2018-01-26T07:46:29.820Z,32.13
2018-01-26T07:48:57.351Z,32.83
2018-01-26T07:51:25.676Z,35.50
2018-01-26T07:53:53.219Z,36.40
2018-01-26T07:56:20.882Z,34.30
2018-01-26T07:58:48.407Z,32.70
2018-01-26T08:01:16.726Z,33.23
2018-01-26T08:03:44.264Z,33.10
2018-01-26T08:06:11.833Z,35.27
2018-01-26T08:08:39.391Z,35.03
2018-01-26T08:11:06.921Z,32.90
2018-01-26T08:13:34.485Z,33.77
2018-01-26T08:16:02.776Z,32.17
2018-01-26T08:18:30.320Z,32.30
2018-01-26T08:20:58.624Z,31.27
2018-01-26T08:23:26.200Z,34.07
2018-01-26T08:25:53.722Z,32.77
2018-01-26T08:28:21.312Z,32.33
2018-01-26T08:30:48.841Z,33.03
2018-01-26T08:33:16.377Z,33.03
2018-01-26T08:35:44.701Z,33.70
2018-01-26T08:38:12.229Z,37.57
2018-01-26T08:40:39.804Z,32.30
2018-01-26T08:43:07.324Z,34.13
2018-01-26T08:45:34.876Z,32.73
2018-01-26T08:48:02.390Z,33.70
2018-01-26T08:50:29.941Z,31.47
2018-01-26T08:52:57.465Z,30.53
2018-01-26T08:55:25.806Z,33.33
2018-01-26T08:57:53.339Z,30.23
2018-01-26T09:00:20.896Z,33.37
2018-01-26T09:02:48.432Z,32.47
2018-01-26T09:05:15.960Z,32.23
2018-01-26T09:07:43.499Z,29.90
2018-01-26T09:10:11.023Z,32.43
2018-01-26T09:12:38.564Z,36.27
2018-01-26T09:15:06.101Z,36.43
2018-01-26T09:17:34.420Z,32.50
2018-01-26T09:20:01.953Z,32.07
2018-01-26T09:22:30.268Z,34.10
2018-01-26T09:24:57.784Z,31.20
2018-01-26T09:27:26.109Z,33.13
2018-01-26T09:29:53.635Z,35.70
2018-01-26T09:32:21.200Z,31.63
2018-01-26T09:34:48.724Z,30.40
2018-01-26T09:37:17.038Z,31.47
2018-01-26T09:39:44.596Z,33.17
2018-01-26T09:42:12.130Z,34.67
2018-01-26T09:44:40.449Z,29.27
2018-01-26T09:47:07.976Z,29.50
2018-01-26T09:49:35.540Z,30.93
2018-01-26T09:52:03.065Z,31.87
2018-01-26T09:54:31.382Z,30.43
2018-01-26T09:56:58.912Z,31.03
2018-01-26T09:59:26.485Z,26.37
2018-01-26T10:01:54.008Z,28.17
2018-01-26T10:04:21.563Z,28.90
2018-01-26T10:06:49.102Z,29.07
2018-01-26T10:09:16.662Z,27.73
2018-01-26T10:11:44.187Z,27.73
2018-01-26T10:14:11.721Z,28.43
2018-01-26T10:16:40.030Z,31.77
2018-01-26T10:19:07.577Z,29.80
2018-01-26T10:21:35.126Z,30.20
2018-01-26T10:24:02.653Z,28.83
2018-01-26T10:26:30.208Z,27.17
2018-01-26T10:28:58.529Z,28.90
2018-01-26T10:31:26.083Z,27.93
2018-01-26T10:33:53.603Z,29.43
2018-01-26T10:36:21.153Z,27.50
2018-01-26T10:38:48.681Z,29.00
2018-01-26T10:41:16.233Z,29.40
2018-01-26T10:43:43.792Z,28.57
2018-01-26T10:46:11.340Z,27.83
2018-01-26T10:48:38.869Z,30.47
2018-01-26T10:51:07.193Z,28.03
2018-01-26T10:53:34.721Z,29.77
2018-01-26T10:56:02.280Z,29.87
2018-01-26T10:58:29.817Z,28.73
2018-01-26T11:00:58.117Z,28.13
2018-01-26T11:03:25.676Z,26.57
2018-01-26T11:05:53.219Z,27.37
2018-01-26T11:08:21.542Z,29.17
2018-01-26T11:10:49.067Z,28.27
2018-01-26T11:13:16.619Z,28.97
2018-01-26T11:15:44.919Z,29.43
2018-01-26T11:18:12.462Z,26.83
2018-01-26T11:20:39.980Z,28.63
2018-01-26T11:23:07.552Z,28.97
2018-01-26T11:25:35.087Z,27.93
2018-01-26T11:28:02.631Z,29.90
2018-01-26T11:30:30.168Z,29.40
2018-01-26T11:32:57.708Z,29.93
2018-01-26T11:35:25.273Z,28.13
2018-01-26T11:37:52.798Z,27.97
2018-01-26T11:40:20.349Z,29.60
2018-01-26T11:42:47.886Z,29.13
2018-01-26T11:45:15.436Z,27.47
2018-01-26T11:47:42.961Z,29.07
2018-01-26T11:50:10.512Z,28.80
2018-01-26T11:52:38.806Z,28.10
2018-01-26T11:55:06.353Z,30.33
2018-01-26T11:57:33.881Z,28.40
2018-01-26T12:00:01.438Z,30.13
2018-01-26T12:02:28.982Z,28.53
2018-01-26T12:04:56.508Z,28.37
2018-01-26T12:07:24.059Z,27.83
2018-01-26T12:09:51.579Z,28.40
2018-01-26T12:12:19.919Z,27.00
2018-01-26T12:14:47.454Z,28.33
2018-01-26T12:17:14.995Z,29.33
2018-01-26T12:19:42.511Z,28.33
2018-01-26T12:22:10.065Z,28.17
2018-01-26T12:24:37.913Z,29.37
2018-01-26T12:27:05.798Z,29.33
2018-01-26T12:29:33.635Z,27.90
2018-01-26T12:32:01.521Z,29.67
2018-01-26T12:34:29.391Z,29.90
2018-01-26T12:36:56.996Z,29.87
2018-01-26T12:39:24.568Z,30.17
2018-01-26T12:41:52.113Z,31.13
2018-01-26T12:44:19.727Z,28.07
2018-01-26T12:46:47.308Z,29.30
2018-01-26T12:49:14.899Z,27.83
2018-01-26T12:51:42.433Z,28.30
2018-01-26T12:54:10.817Z,30.83
2018-01-26T12:56:39.168Z,30.93
2018-01-26T12:59:06.716Z,30.87
2018-01-26T13:01:34.301Z,30.70
2018-01-26T13:04:02.754Z,31.60
2018-01-26T13:06:30.335Z,30.00
2018-01-26T13:08:57.924Z,31.97
2018-01-26T13:11:25.501Z,31.07
2018-01-26T13:13:53.105Z,31.93
2018-01-26T13:16:20.683Z,30.77
2018-01-26T13:18:49.014Z,32.65
2018-01-26T13:21:16.601Z,31.37
2018-01-26T13:23:44.199Z,32.63
2018-01-26T13:26:11.766Z,32.23
2018-01-26T13:28:39.333Z,32.07
2018-01-26T13:31:06.887Z,31.63
2018-01-26T13:33:34.428Z,30.37
2018-01-26T13:36:01.987Z,28.57
2018-01-26T13:38:29.566Z,30.00
2018-01-26T13:40:57.181Z,31.57
2018-01-26T13:43:24.706Z,31.60
2018-01-26T13:45:52.251Z,28.57
2018-01-26T13:48:19.779Z,29.97
2018-01-26T13:50:47.328Z,30.77
2018-01-26T13:53:15.608Z,30.80
2018-01-26T13:55:43.924Z,32.27
2018-01-26T13:58:11.457Z,30.83
2018-01-26T14:00:39.016Z,30.60
2018-01-26T14:03:06.539Z,30.90
2018-01-26T14:05:34.085Z,33.00
2018-01-26T14:08:01.617Z,31.43
2018-01-26T14:10:29.168Z,30.60
2018-01-26T14:12:56.692Z,32.47
2018-01-26T14:15:25.107Z,31.90
2018-01-26T14:17:52.634Z,33.07
2018-01-26T14:20:20.428Z,33.47
2018-01-26T14:22:47.961Z,34.17
2018-01-26T14:25:15.479Z,36.60
2018-01-26T14:27:43.030Z,36.13
2018-01-26T14:30:10.552Z,36.47
2018-01-26T14:32:38.118Z,34.83
2018-01-26T14:35:05.648Z,32.20
2018-01-26T14:37:33.196Z,32.47
2018-01-26T14:40:01.483Z,32.60
2018-01-26T14:42:29.787Z,32.93
2018-01-26T14:44:57.303Z,32.37
2018-01-26T14:47:25.623Z,31.43
2018-01-26T14:49:53.148Z,31.40
2018-01-26T14:52:21.459Z,32.23
2018-01-26T14:54:48.976Z,32.43
2018-01-26T14:57:16.535Z,31.40
2018-01-26T14:59:44.819Z,32.07
2018-01-26T15:02:12.380Z,32.20
2018-01-26T15:04:39.919Z,30.33
2018-01-26T15:07:08.252Z,33.57
2018-01-26T15:09:35.780Z,32.57
2018-01-26T15:12:03.541Z,32.93
2018-01-26T15:14:31.105Z,33.70
2018-01-26T15:16:58.669Z,31.93
2018-01-26T15:19:26.222Z,33.23
2018-01-26T15:21:53.770Z,32.93
2018-01-26T15:24:21.370Z,33.10
2018-01-26T15:26:48.905Z,32.33
2018-01-26T15:29:16.470Z,33.83
2018-01-26T15:31:44.035Z,34.23
2018-01-26T15:34:11.585Z,33.53
2018-01-26T15:36:39.115Z,33.73
2018-01-26T15:39:06.663Z,32.43
2018-01-26T15:41:34.244Z,36.13
2018-01-26T15:44:02.181Z,37.30
2018-01-26T15:46:30.055Z,37.67
2018-01-26T15:48:58.673Z,36.50
2018-01-26T15:51:26.416Z,34.33
2018-01-26T15:53:54.760Z,32.97
2018-01-26T15:56:22.352Z,34.30
2018-01-26T15:58:50.702Z,35.27
2018-01-26T16:01:18.260Z,42.23
2018-01-26T16:03:45.846Z,40.03
2018-01-26T16:06:14.224Z,41.00
2018-01-26T16:08:41.808Z,53.07
2018-01-26T16:11:09.411Z,39.67
2018-01-26T16:13:36.983Z,39.03
2018-01-26T16:16:04.600Z,39.77
2018-01-26T16:18:32.174Z,39.23
2018-01-26T16:21:02.716Z,43.17
2018-01-26T16:23:30.323Z,41.90
2018-01-26T16:25:57.909Z,39.90
2018-01-26T16:28:25.538Z,37.07
2018-01-26T16:30:53.120Z,36.17
2018-01-26T16:33:20.696Z,35.10
2018-01-26T16:35:48.283Z,34.03
2018-01-26T16:38:15.889Z,34.97
2018-01-26T16:40:43.544Z,35.63
2018-01-26T16:43:11.115Z,34.13
2018-01-26T16:45:38.659Z,33.77
2018-01-26T16:48:06.278Z,31.17
2018-01-26T16:50:33.862Z,31.70
2018-01-26T16:53:01.468Z,30.27
2018-01-26T16:55:29.048Z,31.10
2018-01-26T16:57:56.657Z,34.00
2018-01-26T17:00:24.283Z,33.07
2018-01-26T17:02:51.868Z,32.77
2018-01-26T17:05:19.416Z,34.97
2018-01-26T17:07:47.258Z,34.13
2018-01-26T17:10:14.877Z,33.57
2018-01-26T17:12:42.769Z,35.27
2018-01-26T17:15:10.363Z,36.40
2018-01-26T17:17:37.939Z,35.03
2018-01-26T17:20:05.537Z,36.70
2018-01-26T17:22:33.072Z,37.20
2018-01-26T17:25:00.617Z,37.27
2018-01-26T17:27:28.173Z,42.10
2018-01-26T17:29:55.739Z,50.03
2018-01-26T17:32:23.349Z,58.17
2018-01-26T17:34:50.927Z,48.67
2018-01-26T17:37:18.513Z,39.50
2018-01-26T17:39:46.088Z,35.20
2018-01-26T17:42:13.641Z,31.83
2018-01-26T17:44:41.170Z,35.10
2018-01-26T17:47:09.564Z,32.57
2018-01-26T17:49:37.136Z,30.43
2018-01-26T17:52:04.739Z,36.83
2018-01-26T17:54:32.277Z,34.80
2018-01-26T17:56:59.831Z,37.30
2018-01-26T17:59:27.386Z,38.20
2018-01-26T18:01:54.991Z,35.63
2018-01-26T18:04:22.585Z,34.87
2018-01-26T18:06:50.188Z,36.17
2018-01-26T18:09:17.712Z,36.10
2018-01-26T18:11:45.254Z,36.80
2018-01-26T18:14:12.857Z,37.67
2018-01-26T18:16:40.421Z,39.20
2018-01-26T18:19:08.089Z,37.90
2018-01-26T18:21:35.677Z,39.93
2018-01-26T18:24:03.308Z,36.57
2018-01-26T18:26:30.897Z,36.43
2018-01-26T18:28:58.496Z,37.40
2018-01-26T18:31:26.099Z,35.83
2018-01-26T18:33:53.653Z,36.60
2018-01-26T18:36:21.179Z,36.30
2018-01-26T18:38:48.779Z,37.27
2018-01-26T18:41:16.383Z,36.10
2018-01-26T18:43:43.944Z,35.47
2018-01-26T18:46:11.489Z,39.47
2018-01-26T18:48:39.093Z,34.73
2018-01-26T18:51:06.624Z,38.77
2018-01-26T18:53:34.217Z,35.90
2018-01-26T18:56:01.811Z,35.30
2018-01-26T18:58:30.140Z,36.37
2018-01-26T19:00:57.659Z,36.93
2018-01-26T19:03:25.205Z,34.63
2018-01-26T19:05:53.566Z,37.17
2018-01-26T19:08:21.112Z,35.47
2018-01-26T19:10:48.640Z,32.00
2018-01-26T19:13:16.210Z,36.47
2018-01-26T19:15:43.740Z,36.93
2018-01-26T19:18:11.389Z,36.23
2018-01-26T19:20:38.974Z,38.77
2018-01-26T19:23:06.582Z,42.83
2018-01-26T19:25:34.179Z,44.30
2018-01-26T19:28:01.729Z,44.27
2018-01-26T19:30:29.263Z,43.40
2018-01-26T19:32:57.618Z,43.43
2018-01-26T19:35:25.295Z,40.57
2018-01-26T19:37:52.888Z,42.63
2018-01-26T19:40:20.497Z,50.77
2018-01-26T19:42:48.109Z,61.87
2018-01-26T19:45:15.703Z,51.57
2018-01-26T19:47:43.274Z,62.13
2018-01-26T19:50:10.944Z,47.17
2018-01-26T19:52:38.507Z,55.73
2018-01-26T19:55:06.119Z,48.63
2018-01-26T19:57:33.653Z,40.90
2018-01-26T20:00:01.251Z,36.43
2018-01-26T20:02:28.823Z,35.13
2018-01-26T20:05:14.127Z,35.37
2018-01-26T20:07:43.319Z,35.23
2018-01-26T20:10:10.940Z,39.80
2018-01-26T20:12:44.190Z,37.40
2018-01-26T20:15:11.795Z,34.47
2018-01-26T20:17:39.385Z,34.07
2018-01-26T20:20:06.999Z,34.43
2018-01-26T20:22:34.528Z,35.93
2018-01-26T20:25:02.912Z,34.97
2018-01-26T20:27:30.499Z,34.53
2018-01-26T20:29:58.131Z,37.90
2018-01-26T20:32:25.709Z,38.83
2018-01-26T20:34:53.316Z,38.40
2018-01-26T20:37:20.866Z,40.40
2018-01-26T20:39:48.488Z,37.57
2018-01-26T20:42:16.077Z,36.37
2018-01-26T20:44:43.668Z,44.03
2018-01-26T20:47:11.291Z,50.37
2018-01-26T20:49:38.840Z,47.00
2018-01-26T20:52:06.455Z,41.90
2018-01-26T20:54:34.804Z,46.73
2018-01-26T20:57:02.414Z,44.17
2018-01-26T20:59:30.005Z,69.43
2018-01-26T21:01:57.611Z,58.67
2018-01-26T21:04:25.956Z,56.63
2018-01-26T21:06:53.555Z,60.37
2018-01-26T21:09:21.148Z,47.90
2018-01-26T21:11:48.707Z,40.67
2018-01-26T21:14:16.248Z,47.27
2018-01-26T21:16:43.902Z,41.07
2018-01-26T21:19:11.508Z,37.70
2018-01-26T21:21:39.076Z,40.43
2018-01-26T21:24:06.732Z,42.00
2018-01-26T21:26:34.340Z,43.17
2018-01-26T21:29:01.937Z,43.27
2018-01-26T21:31:29.529Z,41.47
2018-01-26T21:33:57.141Z,39.17
2018-01-26T21:36:24.680Z,36.77
2018-01-26T21:38:52.289Z,39.90
2018-01-26T21:41:19.879Z,37.87
2018-01-26T21:43:47.493Z,47.03
2018-01-26T21:46:15.028Z,60.40
2018-01-26T21:48:42.600Z,56.93
2018-01-26T21:51:10.216Z,54.67
2018-01-26T21:53:38.561Z,57.93
2018-01-26T21:56:06.151Z,57.30
2018-01-26T21:58:33.763Z,49.90
2018-01-26T22:01:01.355Z,46.60
2018-01-26T22:03:28.906Z,45.13
2018-01-26T22:06:02.224Z,42.33
2018-01-26T22:08:29.835Z,46.93
2018-01-26T22:10:57.423Z,42.50
2018-01-26T22:13:25.068Z,47.07
2018-01-26T22:15:52.625Z,43.53
2018-01-26T22:18:20.240Z,43.60
2018-01-26T22:20:47.864Z,43.03
2018-01-26T22:23:15.455Z,44.63
2018-01-26T22:25:43.780Z,43.20
2018-01-26T22:28:11.371Z,47.83
2018-01-26T22:30:38.998Z,48.57
2018-01-26T22:33:06.584Z,47.23
2018-01-26T22:35:34.188Z,49.03
2018-01-26T22:38:01.725Z,49.67
2018-01-26T22:40:30.100Z,50.97
2018-01-26T22:42:57.644Z,49.60
2018-01-26T22:45:25.214Z,51.97
2018-01-26T22:47:52.751Z,46.80
2018-01-26T22:50:20.375Z,43.63
2018-01-26T22:52:47.961Z,46.40
2018-01-26T22:55:15.529Z,46.07
2018-01-26T22:57:43.076Z,44.63
2018-01-26T23:00:10.683Z,42.37
2018-01-26T23:02:38.996Z,37.83
2018-01-26T23:05:06.591Z,42.97
2018-01-26T23:07:34.159Z,41.13
2018-01-26T23:10:02.506Z,40.20
2018-01-26T23:12:30.057Z,37.33
2018-01-26T23:14:57.632Z,36.90
2018-01-26T23:17:25.225Z,38.30
2018-01-26T23:19:53.536Z,38.97
2018-01-26T23:22:21.107Z,35.97
2018-01-26T23:24:48.641Z,35.60
2018-01-26T23:27:16.226Z,37.97
2018-01-26T23:29:43.827Z,42.07
2018-01-26T23:32:12.198Z,39.73
2018-01-26T23:34:40.581Z,38.60
2018-01-26T23:37:08.127Z,40.03
2018-01-26T23:39:35.706Z,42.10
2018-01-26T23:42:03.308Z,39.53
2018-01-26T23:44:30.855Z,37.17
2018-01-26T23:46:58.389Z,38.83
2018-01-26T23:49:26.032Z,37.47
2018-01-26T23:51:53.584Z,37.77
2018-01-26T23:54:21.147Z,36.57
2018-01-26T23:56:48.731Z,39.40
2018-01-26T23:59:16.300Z,39.50
